sensor_id;sensor_type;location;lat;lon;timestamp;temperature;humidity
7494;DHT22;3788;49.902;8.590;2023-04-03T00:01:18;5.60;94.10
7494;DHT22;3788;49.902;8.590;2023-04-03T00:03:45;5.60;94.10
7494;DHT22;3788;49.902;8.590;2023-04-03T00:06:12;5.50;94.20
7494;DHT22;3788;49.902;8.590;2023-04-03T00:08:39;5.50;94.20
7494;DHT22;3788;49.902;8.590;2023-04-03T00:11:07;5.40;94.30
7494;DHT22;3788;49.902;8.590;2023-04-03T00:13:34;5.40;94.40
7494;DHT22;3788;49.902;8.590;2023-04-03T00:16:01;5.40;94.40
7494;DHT22;3788;49.902;8.590;2023-04-03T00:18:30;5.40;94.80
7494;DHT22;3788;49.902;8.590;2023-04-03T00:20:56;5.40;94.60
7494;DHT22;3788;49.902;8.590;2023-04-03T00:23:23;5.40;94.60
7494;DHT22;3788;49.902;8.590;2023-04-03T00:25:51;5.40;94.60
7494;DHT22;3788;49.902;8.590;2023-04-03T00:28:18;5.40;94.70
7494;DHT22;3788;49.902;8.590;2023-04-03T00:30:45;5.40;94.70
7494;DHT22;3788;49.902;8.590;2023-04-03T00:33:12;5.40;94.70
7494;DHT22;3788;49.902;8.590;2023-04-03T00:35:41;5.40;94.80
7494;DHT22;3788;49.902;8.590;2023-04-03T00:38:08;5.40;94.80
7494;DHT22;3788;49.902;8.590;2023-04-03T00:40:37;5.40;94.90
7494;DHT22;3788;49.902;8.590;2023-04-03T00:43:11;5.40;94.90
7494;DHT22;3788;49.902;8.590;2023-04-03T00:45:40;5.40;95.00
7494;DHT22;3788;49.902;8.590;2023-04-03T00:48:10;5.40;95.00
7494;DHT22;3788;49.902;8.590;2023-04-03T00:50:41;5.40;95.10
7494;DHT22;3788;49.902;8.590;2023-04-03T00:53:12;5.40;95.10
7494;DHT22;3788;49.902;8.590;2023-04-03T00:55:41;5.40;95.20
7494;DHT22;3788;49.902;8.590;2023-04-03T00:58:08;5.40;95.20
7494;DHT22;3788;49.902;8.590;2023-04-03T01:00:37;5.40;95.30
7494;DHT22;3788;49.902;8.590;2023-04-03T01:03:05;5.40;95.30
7494;DHT22;3788;49.902;8.590;2023-04-03T01:05:32;5.40;95.30
7494;DHT22;3788;49.902;8.590;2023-04-03T01:08:00;5.50;95.40
7494;DHT22;3788;49.902;8.590;2023-04-03T01:10:27;5.50;95.40
7494;DHT22;3788;49.902;8.590;2023-04-03T01:12:54;5.40;95.40
7494;DHT22;3788;49.902;8.590;2023-04-03T01:15:23;5.40;95.40
7494;DHT22;3788;49.902;8.590;2023-04-03T01:17:51;5.50;95.50
7494;DHT22;3788;49.902;8.590;2023-04-03T01:20:50;5.50;95.50
7494;DHT22;3788;49.902;8.590;2023-04-03T01:23:36;5.50;95.50
7494;DHT22;3788;49.902;8.590;2023-04-03T01:26:05;5.50;95.50
7494;DHT22;3788;49.902;8.590;2023-04-03T01:28:43;5.50;95.50
7494;DHT22;3788;49.902;8.590;2023-04-03T01:31:15;5.50;95.60
7494;DHT22;3788;49.902;8.590;2023-04-03T01:33:46;5.40;95.50
7494;DHT22;3788;49.902;8.590;2023-04-03T01:36:15;5.40;95.50
7494;DHT22;3788;49.902;8.590;2023-04-03T01:38:42;5.40;95.60
7494;DHT22;3788;49.902;8.590;2023-04-03T01:41:09;5.40;95.60
7494;DHT22;3788;49.902;8.590;2023-04-03T01:43:35;5.40;95.60
7494;DHT22;3788;49.902;8.590;2023-04-03T01:46:02;5.40;95.70
7494;DHT22;3788;49.902;8.590;2023-04-03T01:48:29;5.40;95.70
7494;DHT22;3788;49.902;8.590;2023-04-03T01:50:57;5.40;95.70
7494;DHT22;3788;49.902;8.590;2023-04-03T01:53:24;5.40;95.80
7494;DHT22;3788;49.902;8.590;2023-04-03T01:55:51;5.40;95.80
7494;DHT22;3788;49.902;8.590;2023-04-03T01:58:17;5.40;95.80
7494;DHT22;3788;49.902;8.590;2023-04-03T02:00:44;5.40;95.90
7494;DHT22;3788;49.902;8.590;2023-04-03T02:03:11;5.40;95.90
7494;DHT22;3788;49.902;8.590;2023-04-03T02:05:38;5.40;95.90
7494;DHT22;3788;49.902;8.590;2023-04-03T02:08:06;5.40;96.20
7494;DHT22;3788;49.902;8.590;2023-04-03T02:10:33;5.40;95.90
7494;DHT22;3788;49.902;8.590;2023-04-03T02:12:59;5.40;95.90
7494;DHT22;3788;49.902;8.590;2023-04-03T02:15:26;5.40;96.00
7494;DHT22;3788;49.902;8.590;2023-04-03T02:17:53;5.40;96.00
7494;DHT22;3788;49.902;8.590;2023-04-03T02:20:19;5.40;96.10
7494;DHT22;3788;49.902;8.590;2023-04-03T02:22:46;5.30;96.10
7494;DHT22;3788;49.902;8.590;2023-04-03T02:25:15;5.30;96.10
7494;DHT22;3788;49.902;8.590;2023-04-03T02:27:43;5.30;96.10
7494;DHT22;3788;49.902;8.590;2023-04-03T02:30:10;5.20;96.20
7494;DHT22;3788;49.902;8.590;2023-04-03T02:32:37;5.30;96.20
7494;DHT22;3788;49.902;8.590;2023-04-03T02:35:04;5.20;96.30
7494;DHT22;3788;49.902;8.590;2023-04-03T02:37:31;5.20;96.40
7494;DHT22;3788;49.902;8.590;2023-04-03T02:39:58;5.20;96.40
7494;DHT22;3788;49.902;8.590;2023-04-03T02:42:26;5.30;96.50
7494;DHT22;3788;49.902;8.590;2023-04-03T02:44:52;5.30;96.60
7494;DHT22;3788;49.902;8.590;2023-04-03T02:47:19;5.30;96.60
7494;DHT22;3788;49.902;8.590;2023-04-03T02:49:46;5.20;96.60
7494;DHT22;3788;49.902;8.590;2023-04-03T02:52:13;5.20;96.60
7494;DHT22;3788;49.902;8.590;2023-04-03T02:54:40;5.20;96.70
7494;DHT22;3788;49.902;8.590;2023-04-03T02:57:07;5.20;96.70
7494;DHT22;3788;49.902;8.590;2023-04-03T02:59:35;5.20;96.70
7494;DHT22;3788;49.902;8.590;2023-04-03T03:02:05;5.10;96.70
7494;DHT22;3788;49.902;8.590;2023-04-03T03:04:32;5.10;96.80
7494;DHT22;3788;49.902;8.590;2023-04-03T03:06:59;5.10;96.80
7494;DHT22;3788;49.902;8.590;2023-04-03T03:09:26;5.10;96.80
7494;DHT22;3788;49.902;8.590;2023-04-03T03:11:52;5.10;96.90
7494;DHT22;3788;49.902;8.590;2023-04-03T03:14:19;5.10;97.00
7494;DHT22;3788;49.902;8.590;2023-04-03T03:16:47;5.00;97.00
7494;DHT22;3788;49.902;8.590;2023-04-03T03:19:14;5.00;97.10
7494;DHT22;3788;49.902;8.590;2023-04-03T03:21:41;5.00;97.20
7494;DHT22;3788;49.902;8.590;2023-04-03T03:24:08;5.00;97.30
7494;DHT22;3788;49.902;8.590;2023-04-03T03:26:34;4.90;97.30
7494;DHT22;3788;49.902;8.590;2023-04-03T03:29:01;4.90;97.40
7494;DHT22;3788;49.902;8.590;2023-04-03T03:31:28;4.90;97.40
7494;DHT22;3788;49.902;8.590;2023-04-03T03:33:56;4.90;97.50
7494;DHT22;3788;49.902;8.590;2023-04-03T03:36:23;5.00;97.60
7494;DHT22;3788;49.902;8.590;2023-04-03T03:38:50;4.90;97.50
7494;DHT22;3788;49.902;8.590;2023-04-03T03:41:17;4.90;97.60
7494;DHT22;3788;49.902;8.590;2023-04-03T03:43:44;4.90;97.60
7494;DHT22;3788;49.902;8.590;2023-04-03T03:46:10;5.00;97.70
7494;DHT22;3788;49.902;8.590;2023-04-03T03:48:37;4.90;97.70
7494;DHT22;3788;49.902;8.590;2023-04-03T03:51:05;4.90;97.80
7494;DHT22;3788;49.902;8.590;2023-04-03T03:53:32;4.90;97.90
7494;DHT22;3788;49.902;8.590;2023-04-03T03:55:59;4.90;97.90
7494;DHT22;3788;49.902;8.590;2023-04-03T03:58:26;4.90;98.00
7494;DHT22;3788;49.902;8.590;2023-04-03T04:00:53;4.90;98.00
7494;DHT22;3788;49.902;8.590;2023-04-03T04:03:19;4.90;98.10
7494;DHT22;3788;49.902;8.590;2023-04-03T04:05:46;4.90;98.20
7494;DHT22;3788;49.902;8.590;2023-04-03T04:08:14;4.90;98.30
7494;DHT22;3788;49.902;8.590;2023-04-03T04:10:41;4.90;98.30
7494;DHT22;3788;49.902;8.590;2023-04-03T04:13:08;4.90;98.30
7494;DHT22;3788;49.902;8.590;2023-04-03T04:15:34;4.90;98.20
7494;DHT22;3788;49.902;8.590;2023-04-03T04:18:01;4.90;98.20
7494;DHT22;3788;49.902;8.590;2023-04-03T04:20:28;4.90;98.00
7494;DHT22;3788;49.902;8.590;2023-04-03T04:22:55;4.90;98.00
7494;DHT22;3788;49.902;8.590;2023-04-03T04:25:23;4.90;98.00
7494;DHT22;3788;49.902;8.590;2023-04-03T04:27:50;4.90;97.90
7494;DHT22;3788;49.902;8.590;2023-04-03T04:30:17;5.00;97.90
7494;DHT22;3788;49.902;8.590;2023-04-03T04:32:43;5.00;97.80
7494;DHT22;3788;49.902;8.590;2023-04-03T04:35:11;5.00;97.70
7494;DHT22;3788;49.902;8.590;2023-04-03T04:37:37;5.00;97.60
7494;DHT22;3788;49.902;8.590;2023-04-03T04:40:05;4.90;97.60
7494;DHT22;3788;49.902;8.590;2023-04-03T04:42:33;5.00;97.60
7494;DHT22;3788;49.902;8.590;2023-04-03T04:45:00;4.90;97.40
7494;DHT22;3788;49.902;8.590;2023-04-03T04:47:28;4.90;97.30
7494;DHT22;3788;49.902;8.590;2023-04-03T04:49:55;4.90;97.30
7494;DHT22;3788;49.902;8.590;2023-04-03T04:52:22;4.90;97.20
7494;DHT22;3788;49.902;8.590;2023-04-03T04:54:48;4.90;97.20
7494;DHT22;3788;49.902;8.590;2023-04-03T04:57:15;4.90;97.30
7494;DHT22;3788;49.902;8.590;2023-04-03T04:59:43;4.90;97.30
7494;DHT22;3788;49.902;8.590;2023-04-03T05:02:10;4.80;97.20
7494;DHT22;3788;49.902;8.590;2023-04-03T05:04:37;4.80;97.10
7494;DHT22;3788;49.902;8.590;2023-04-03T05:07:04;4.80;97.10
7494;DHT22;3788;49.902;8.590;2023-04-03T05:09:31;4.70;97.00
7494;DHT22;3788;49.902;8.590;2023-04-03T05:11:57;4.70;97.00
7494;DHT22;3788;49.902;8.590;2023-04-03T05:14:24;4.70;97.00
7494;DHT22;3788;49.902;8.590;2023-04-03T05:16:52;4.70;97.00
7494;DHT22;3788;49.902;8.590;2023-04-03T05:19:19;4.70;96.60
7494;DHT22;3788;49.902;8.590;2023-04-03T05:21:46;4.60;96.70
7494;DHT22;3788;49.902;8.590;2023-04-03T05:24:13;4.60;96.90
7494;DHT22;3788;49.902;8.590;2023-04-03T05:26:41;4.60;96.90
7494;DHT22;3788;49.902;8.590;2023-04-03T05:29:08;4.60;96.90
7494;DHT22;3788;49.902;8.590;2023-04-03T05:31:34;4.60;96.60
7494;DHT22;3788;49.902;8.590;2023-04-03T05:34:03;4.60;96.20
7494;DHT22;3788;49.902;8.590;2023-04-03T05:36:29;4.50;96.20
7494;DHT22;3788;49.902;8.590;2023-04-03T05:38:56;4.50;96.40
7494;DHT22;3788;49.902;8.590;2023-04-03T05:41:23;4.50;96.40
7494;DHT22;3788;49.902;8.590;2023-04-03T05:43:50;4.60;96.50
7494;DHT22;3788;49.902;8.590;2023-04-03T05:46:18;4.60;96.40
7494;DHT22;3788;49.902;8.590;2023-04-03T05:48:46;4.60;96.40
7494;DHT22;3788;49.902;8.590;2023-04-03T05:51:16;4.60;96.40
7494;DHT22;3788;49.902;8.590;2023-04-03T05:53:44;4.60;96.40
7494;DHT22;3788;49.902;8.590;2023-04-03T05:56:12;4.60;96.30
7494;DHT22;3788;49.902;8.590;2023-04-03T05:58:38;4.60;96.20
7494;DHT22;3788;49.902;8.590;2023-04-03T06:01:05;4.60;96.20
7494;DHT22;3788;49.902;8.590;2023-04-03T06:03:32;4.60;96.20
7494;DHT22;3788;49.902;8.590;2023-04-03T06:05:59;4.60;96.10
7494;DHT22;3788;49.902;8.590;2023-04-03T06:08:27;4.60;96.00
7494;DHT22;3788;49.902;8.590;2023-04-03T06:10:54;4.70;96.10
7494;DHT22;3788;49.902;8.590;2023-04-03T06:13:21;4.70;96.10
7494;DHT22;3788;49.902;8.590;2023-04-03T06:15:49;4.70;95.90
7494;DHT22;3788;49.902;8.590;2023-04-03T06:18:15;4.70;95.60
7494;DHT22;3788;49.902;8.590;2023-04-03T06:20:42;4.60;96.00
7494;DHT22;3788;49.902;8.590;2023-04-03T06:23:09;4.70;95.70
7494;DHT22;3788;49.902;8.590;2023-04-03T06:25:37;4.70;95.70
7494;DHT22;3788;49.902;8.590;2023-04-03T06:28:03;4.80;95.00
7494;DHT22;3788;49.902;8.590;2023-04-03T06:30:30;4.80;94.70
7494;DHT22;3788;49.902;8.590;2023-04-03T06:32:57;4.80;94.90
7494;DHT22;3788;49.902;8.590;2023-04-03T06:35:24;4.90;94.90
7494;DHT22;3788;49.902;8.590;2023-04-03T06:37:52;4.90;94.70
7494;DHT22;3788;49.902;8.590;2023-04-03T06:40:22;4.90;94.50
7494;DHT22;3788;49.902;8.590;2023-04-03T06:42:50;4.90;94.40
7494;DHT22;3788;49.902;8.590;2023-04-03T06:45:17;4.90;94.50
7494;DHT22;3788;49.902;8.590;2023-04-03T06:47:44;4.90;94.20
7494;DHT22;3788;49.902;8.590;2023-04-03T06:50:11;4.90;94.10
7494;DHT22;3788;49.902;8.590;2023-04-03T06:52:40;4.90;93.80
7494;DHT22;3788;49.902;8.590;2023-04-03T06:55:08;5.00;93.90
7494;DHT22;3788;49.902;8.590;2023-04-03T06:57:35;5.10;93.70
7494;DHT22;3788;49.902;8.590;2023-04-03T07:00:04;5.10;93.60
7494;DHT22;3788;49.902;8.590;2023-04-03T07:02:32;5.10;93.20
7494;DHT22;3788;49.902;8.590;2023-04-03T07:04:59;5.10;93.30
7494;DHT22;3788;49.902;8.590;2023-04-03T07:07:25;5.10;93.10
7494;DHT22;3788;49.902;8.590;2023-04-03T07:09:53;5.10;93.10
7494;DHT22;3788;49.902;8.590;2023-04-03T07:12:20;5.20;92.70
7494;DHT22;3788;49.902;8.590;2023-04-03T07:14:46;5.10;92.80
7494;DHT22;3788;49.902;8.590;2023-04-03T07:17:14;5.20;92.60
7494;DHT22;3788;49.902;8.590;2023-04-03T07:19:42;5.20;92.10
7494;DHT22;3788;49.902;8.590;2023-04-03T07:22:09;5.20;91.70
7494;DHT22;3788;49.902;8.590;2023-04-03T07:24:36;5.30;91.70
7494;DHT22;3788;49.902;8.590;2023-04-03T07:27:03;5.30;91.70
7494;DHT22;3788;49.902;8.590;2023-04-03T07:29:30;5.80;91.70
7494;DHT22;3788;49.902;8.590;2023-04-03T07:31:58;6.60;90.30
7494;DHT22;3788;49.902;8.590;2023-04-03T07:34:26;7.40;88.00
7494;DHT22;3788;49.902;8.590;2023-04-03T07:36:53;8.30;85.00
7494;DHT22;3788;49.902;8.590;2023-04-03T07:39:20;9.10;83.00
7494;DHT22;3788;49.902;8.590;2023-04-03T07:41:46;9.70;80.80
7494;DHT22;3788;49.902;8.590;2023-04-03T07:44:13;10.30;78.00
7494;DHT22;3788;49.902;8.590;2023-04-03T07:46:40;10.80;76.30
7494;DHT22;3788;49.902;8.590;2023-04-03T07:49:07;11.00;73.00
7494;DHT22;3788;49.902;8.590;2023-04-03T07:51:36;11.30;73.40
7494;DHT22;3788;49.902;8.590;2023-04-03T07:54:03;11.70;71.10
7494;DHT22;3788;49.902;8.590;2023-04-03T07:56:30;11.60;68.10
7494;DHT22;3788;49.902;8.590;2023-04-03T07:58:57;11.60;68.30
7494;DHT22;3788;49.902;8.590;2023-04-03T08:01:24;11.30;66.30
7494;DHT22;3788;49.902;8.590;2023-04-03T08:03:50;11.40;67.60
7494;DHT22;3788;49.902;8.590;2023-04-03T08:06:17;11.60;67.20
7494;DHT22;3788;49.902;8.590;2023-04-03T08:08:45;11.90;66.70
7494;DHT22;3788;49.902;8.590;2023-04-03T08:11:12;12.00;65.20
7494;DHT22;3788;49.902;8.590;2023-04-03T08:13:39;12.20;65.90
7494;DHT22;3788;49.902;8.590;2023-04-03T08:16:09;12.30;66.80
7494;DHT22;3788;49.902;8.590;2023-04-03T08:18:36;12.20;64.00
7494;DHT22;3788;49.902;8.590;2023-04-03T08:21:06;12.10;64.10
7494;DHT22;3788;49.902;8.590;2023-04-03T08:23:33;12.00;64.80
7494;DHT22;3788;49.902;8.590;2023-04-03T08:26:07;12.20;65.60
7494;DHT22;3788;49.902;8.590;2023-04-03T08:28:34;12.60;65.10
7494;DHT22;3788;49.902;8.590;2023-04-03T08:31:05;12.70;64.00
7494;DHT22;3788;49.902;8.590;2023-04-03T08:33:35;13.20;63.90
7494;DHT22;3788;49.902;8.590;2023-04-03T08:36:03;13.50;62.10
7494;DHT22;3788;49.902;8.590;2023-04-03T08:38:30;13.70;61.10
7494;DHT22;3788;49.902;8.590;2023-04-03T08:41:07;13.70;60.80
7494;DHT22;3788;49.902;8.590;2023-04-03T08:43:53;13.90;59.90
7494;DHT22;3788;49.902;8.590;2023-04-03T08:46:25;14.10;58.60
7494;DHT22;3788;49.902;8.590;2023-04-03T08:48:57;14.00;58.10
7494;DHT22;3788;49.902;8.590;2023-04-03T08:51:26;13.70;56.30
7494;DHT22;3788;49.902;8.590;2023-04-03T08:53:57;13.50;57.10
7494;DHT22;3788;49.902;8.590;2023-04-03T08:56:27;13.50;57.90
7494;DHT22;3788;49.902;8.590;2023-04-03T08:58:56;13.70;58.60
7494;DHT22;3788;49.902;8.590;2023-04-03T09:01:27;13.80;58.00
7494;DHT22;3788;49.902;8.590;2023-04-03T09:03:56;13.90;56.40
7494;DHT22;3788;49.902;8.590;2023-04-03T09:06:26;14.10;56.70
7494;DHT22;3788;49.902;8.590;2023-04-03T09:09:05;14.10;55.90
7494;DHT22;3788;49.902;8.590;2023-04-03T09:11:47;14.20;56.70
7494;DHT22;3788;49.902;8.590;2023-04-03T09:14:23;14.40;55.70
7494;DHT22;3788;49.902;8.590;2023-04-03T09:16:55;13.70;55.40
7494;DHT22;3788;49.902;8.590;2023-04-03T09:19:32;13.20;56.40
7494;DHT22;3788;49.902;8.590;2023-04-03T09:22:11;13.10;57.00
7494;DHT22;3788;49.902;8.590;2023-04-03T09:24:41;12.80;56.80
7494;DHT22;3788;49.902;8.590;2023-04-03T09:27:11;12.90;56.20
7494;DHT22;3788;49.902;8.590;2023-04-03T09:29:40;12.80;55.60
7494;DHT22;3788;49.902;8.590;2023-04-03T09:32:19;12.80;56.00
7494;DHT22;3788;49.902;8.590;2023-04-03T09:34:49;13.00;56.70
7494;DHT22;3788;49.902;8.590;2023-04-03T09:37:39;13.30;56.10
7494;DHT22;3788;49.902;8.590;2023-04-03T09:40:28;12.80;55.60
7494;DHT22;3788;49.902;8.590;2023-04-03T09:42:58;12.50;55.80
7494;DHT22;3788;49.902;8.590;2023-04-03T09:45:28;12.00;56.10
7494;DHT22;3788;49.902;8.590;2023-04-03T09:48:07;11.10;57.40
7494;DHT22;3788;49.902;8.590;2023-04-03T09:50:35;10.50;59.40
7494;DHT22;3788;49.902;8.590;2023-04-03T09:53:06;9.90;60.90
7494;DHT22;3788;49.902;8.590;2023-04-03T09:55:42;10.00;60.90
7494;DHT22;3788;49.902;8.590;2023-04-03T09:58:27;10.70;61.30
7494;DHT22;3788;49.902;8.590;2023-04-03T10:00:56;11.50;60.60
7494;DHT22;3788;49.902;8.590;2023-04-03T10:03:27;11.70;58.50
7494;DHT22;3788;49.902;8.590;2023-04-03T10:05:54;11.50;58.90
7494;DHT22;3788;49.902;8.590;2023-04-03T10:08:26;11.40;58.60
7494;DHT22;3788;49.902;8.590;2023-04-03T10:11:08;11.40;58.50
7494;DHT22;3788;49.902;8.590;2023-04-03T10:13:49;11.40;57.90
7494;DHT22;3788;49.902;8.590;2023-04-03T10:16:18;11.40;59.40
7494;DHT22;3788;49.902;8.590;2023-04-03T10:18:51;11.10;58.40
7494;DHT22;3788;49.902;8.590;2023-04-03T10:21:28;11.10;59.20
7494;DHT22;3788;49.902;8.590;2023-04-03T10:24:03;11.20;59.70
7494;DHT22;3788;49.902;8.590;2023-04-03T10:26:41;11.60;59.40
7494;DHT22;3788;49.902;8.590;2023-04-03T10:29:18;11.70;58.80
7494;DHT22;3788;49.902;8.590;2023-04-03T10:31:55;11.60;58.50
7494;DHT22;3788;49.902;8.590;2023-04-03T10:34:29;11.20;58.10
7494;DHT22;3788;49.902;8.590;2023-04-03T10:37:05;11.00;59.10
7494;DHT22;3788;49.902;8.590;2023-04-03T10:39:41;10.90;59.30
7494;DHT22;3788;49.902;8.590;2023-04-03T10:42:16;10.90;59.60
7494;DHT22;3788;49.902;8.590;2023-04-03T10:45:10;10.90;59.60
7494;DHT22;3788;49.902;8.590;2023-04-03T10:47:47;11.00;59.30
7494;DHT22;3788;49.902;8.590;2023-04-03T10:50:36;10.80;58.50
7494;DHT22;3788;49.902;8.590;2023-04-03T10:53:09;10.90;58.60
7494;DHT22;3788;49.902;8.590;2023-04-03T10:55:42;11.10;59.00
7494;DHT22;3788;49.902;8.590;2023-04-03T10:58:18;11.20;59.30
7494;DHT22;3788;49.902;8.590;2023-04-03T11:00:50;11.00;58.10
7494;DHT22;3788;49.902;8.590;2023-04-03T11:03:27;10.70;58.90
7494;DHT22;3788;49.902;8.590;2023-04-03T11:05:57;10.50;59.20
7494;DHT22;3788;49.902;8.590;2023-04-03T11:08:28;10.20;59.10
7494;DHT22;3788;49.902;8.590;2023-04-03T11:11:00;10.10;58.80
7494;DHT22;3788;49.902;8.590;2023-04-03T11:13:33;10.10;60.00
7494;DHT22;3788;49.902;8.590;2023-04-03T11:16:03;10.20;59.30
7494;DHT22;3788;49.902;8.590;2023-04-03T11:18:35;10.20;58.70
7494;DHT22;3788;49.902;8.590;2023-04-03T11:21:07;10.10;58.20
7494;DHT22;3788;49.902;8.590;2023-04-03T11:23:38;9.90;59.30
7494;DHT22;3788;49.902;8.590;2023-04-03T11:26:10;9.80;59.50
7494;DHT22;3788;49.902;8.590;2023-04-03T11:28:37;9.80;59.60
7494;DHT22;3788;49.902;8.590;2023-04-03T11:31:15;9.90;59.30
7494;DHT22;3788;49.902;8.590;2023-04-03T11:33:51;10.10;57.20
7494;DHT22;3788;49.902;8.590;2023-04-03T11:36:24;10.20;57.20
7494;DHT22;3788;49.902;8.590;2023-04-03T11:38:54;10.40;56.60
7494;DHT22;3788;49.902;8.590;2023-04-03T11:41:26;10.30;57.00
7494;DHT22;3788;49.902;8.590;2023-04-03T11:44:00;10.20;57.10
7494;DHT22;3788;49.902;8.590;2023-04-03T11:46:52;10.10;56.40
7494;DHT22;3788;49.902;8.590;2023-04-03T11:52:55;10.00;56.30
7494;DHT22;3788;49.902;8.590;2023-04-03T11:55:52;10.00;55.80
7494;DHT22;3788;49.902;8.590;2023-04-03T11:58:20;10.00;55.20
7494;DHT22;3788;49.902;8.590;2023-04-03T12:00:56;9.90;56.40
7494;DHT22;3788;49.902;8.590;2023-04-03T12:07:11;10.10;55.30
7494;DHT22;3788;49.902;8.590;2023-04-03T12:10:14;10.40;56.00
7494;DHT22;3788;49.902;8.590;2023-04-03T12:12:43;10.60;54.20
7494;DHT22;3788;49.902;8.590;2023-04-03T12:15:47;10.50;53.10
7494;DHT22;3788;49.902;8.590;2023-04-03T12:18:57;10.30;53.00
7494;DHT22;3788;49.902;8.590;2023-04-03T12:24:28;10.00;52.30
7494;DHT22;3788;49.902;8.590;2023-04-03T12:27:05;9.90;51.60
7494;DHT22;3788;49.902;8.590;2023-04-03T12:29:39;9.80;51.60
7494;DHT22;3788;49.902;8.590;2023-04-03T12:32:19;9.80;51.00
7494;DHT22;3788;49.902;8.590;2023-04-03T12:35:01;9.80;52.20
7494;DHT22;3788;49.902;8.590;2023-04-03T12:37:44;9.90;52.00
7494;DHT22;3788;49.902;8.590;2023-04-03T12:40:25;9.90;49.90
7494;DHT22;3788;49.902;8.590;2023-04-03T12:43:13;10.00;48.60
7494;DHT22;3788;49.902;8.590;2023-04-03T12:45:44;10.00;49.70
7494;DHT22;3788;49.902;8.590;2023-04-03T12:48:15;10.20;50.60
7494;DHT22;3788;49.902;8.590;2023-04-03T12:50:45;10.30;49.80
7494;DHT22;3788;49.902;8.590;2023-04-03T12:53:17;10.30;48.90
7494;DHT22;3788;49.902;8.590;2023-04-03T12:55:46;10.20;48.90
7494;DHT22;3788;49.902;8.590;2023-04-03T12:58:19;10.20;49.10
7494;DHT22;3788;49.902;8.590;2023-04-03T13:00:58;10.00;48.60
7494;DHT22;3788;49.902;8.590;2023-04-03T13:03:26;9.90;49.10
7494;DHT22;3788;49.902;8.590;2023-04-03T13:05:54;9.70;48.50
7494;DHT22;3788;49.902;8.590;2023-04-03T13:08:23;9.60;48.90
7494;DHT22;3788;49.902;8.590;2023-04-03T13:10:55;9.50;49.10
7494;DHT22;3788;49.902;8.590;2023-04-03T13:13:22;9.60;49.50
7494;DHT22;3788;49.902;8.590;2023-04-03T13:15:52;9.60;49.70
7494;DHT22;3788;49.902;8.590;2023-04-03T13:18:28;9.60;49.70
7494;DHT22;3788;49.902;8.590;2023-04-03T13:21:00;9.60;49.40
7494;DHT22;3788;49.902;8.590;2023-04-03T13:23:29;9.60;48.20
7494;DHT22;3788;49.902;8.590;2023-04-03T13:25:58;9.60;49.40
7494;DHT22;3788;49.902;8.590;2023-04-03T13:28:30;9.70;49.40
7494;DHT22;3788;49.902;8.590;2023-04-03T13:31:05;9.70;48.80
7494;DHT22;3788;49.902;8.590;2023-04-03T13:33:36;9.70;48.60
7494;DHT22;3788;49.902;8.590;2023-04-03T13:36:06;9.70;48.40
7494;DHT22;3788;49.902;8.590;2023-04-03T13:38:35;9.70;49.20
7494;DHT22;3788;49.902;8.590;2023-04-03T13:41:20;9.80;51.30
7494;DHT22;3788;49.902;8.590;2023-04-03T13:43:48;9.80;51.60
7494;DHT22;3788;49.902;8.590;2023-04-03T13:46:26;9.80;52.00
7494;DHT22;3788;49.902;8.590;2023-04-03T13:48:54;9.80;51.70
7494;DHT22;3788;49.902;8.590;2023-04-03T13:51:24;9.80;51.60
7494;DHT22;3788;49.902;8.590;2023-04-03T13:53:54;9.90;52.10
7494;DHT22;3788;49.902;8.590;2023-04-03T13:56:31;9.80;51.70
7494;DHT22;3788;49.902;8.590;2023-04-03T13:59:19;9.80;52.10
7494;DHT22;3788;49.902;8.590;2023-04-03T14:01:51;9.80;52.00
7494;DHT22;3788;49.902;8.590;2023-04-03T14:04:21;9.90;52.80
7494;DHT22;3788;49.902;8.590;2023-04-03T14:06:48;10.00;51.50
7494;DHT22;3788;49.902;8.590;2023-04-03T14:09:18;10.00;52.00
7494;DHT22;3788;49.902;8.590;2023-04-03T14:11:49;10.10;52.00
7494;DHT22;3788;49.902;8.590;2023-04-03T14:14:20;10.10;51.30
7494;DHT22;3788;49.902;8.590;2023-04-03T14:16:52;10.10;50.30
7494;DHT22;3788;49.902;8.590;2023-04-03T14:19:23;9.90;51.20
7494;DHT22;3788;49.902;8.590;2023-04-03T14:21:51;9.90;51.70
7494;DHT22;3788;49.902;8.590;2023-04-03T14:24:18;9.80;51.60
7494;DHT22;3788;49.902;8.590;2023-04-03T14:26:48;9.90;52.40
7494;DHT22;3788;49.902;8.590;2023-04-03T14:29:15;9.90;52.60
7494;DHT22;3788;49.902;8.590;2023-04-03T14:31:44;9.80;52.30
7494;DHT22;3788;49.902;8.590;2023-04-03T14:34:11;9.80;51.80
7494;DHT22;3788;49.902;8.590;2023-04-03T14:36:39;9.70;52.00
7494;DHT22;3788;49.902;8.590;2023-04-03T14:39:08;9.70;52.30
7494;DHT22;3788;49.902;8.590;2023-04-03T14:41:36;9.60;52.60
7494;DHT22;3788;49.902;8.590;2023-04-03T14:44:04;9.70;52.70
7494;DHT22;3788;49.902;8.590;2023-04-03T14:46:34;9.70;52.20
7494;DHT22;3788;49.902;8.590;2023-04-03T14:49:02;9.70;52.50
7494;DHT22;3788;49.902;8.590;2023-04-03T14:51:33;9.70;52.20
7494;DHT22;3788;49.902;8.590;2023-04-03T14:54:00;9.60;52.20
7494;DHT22;3788;49.902;8.590;2023-04-03T14:56:29;9.60;52.40
7494;DHT22;3788;49.902;8.590;2023-04-03T14:58:58;9.50;51.70
7494;DHT22;3788;49.902;8.590;2023-04-03T15:01:27;9.50;52.00
7494;DHT22;3788;49.902;8.590;2023-04-03T15:03:54;9.50;52.30
7494;DHT22;3788;49.902;8.590;2023-04-03T15:06:21;9.50;52.20
7494;DHT22;3788;49.902;8.590;2023-04-03T15:08:48;9.50;52.30
7494;DHT22;3788;49.902;8.590;2023-04-03T15:11:15;9.50;52.30
7494;DHT22;3788;49.902;8.590;2023-04-03T15:13:42;9.50;52.70
7494;DHT22;3788;49.902;8.590;2023-04-03T15:16:15;9.40;52.40
7494;DHT22;3788;49.902;8.590;2023-04-03T15:18:44;9.50;53.40
7494;DHT22;3788;49.902;8.590;2023-04-03T15:21:11;9.50;53.10
7494;DHT22;3788;49.902;8.590;2023-04-03T15:23:38;9.50;53.10
7494;DHT22;3788;49.902;8.590;2023-04-03T15:26:04;9.50;53.50
7494;DHT22;3788;49.902;8.590;2023-04-03T15:28:34;9.50;53.60
7494;DHT22;3788;49.902;8.590;2023-04-03T15:31:02;9.50;53.50
7494;DHT22;3788;49.902;8.590;2023-04-03T15:33:29;9.50;52.60
7494;DHT22;3788;49.902;8.590;2023-04-03T15:35:58;9.40;52.40
7494;DHT22;3788;49.902;8.590;2023-04-03T15:38:25;9.40;52.70
7494;DHT22;3788;49.902;8.590;2023-04-03T15:40:53;9.30;52.40
7494;DHT22;3788;49.902;8.590;2023-04-03T15:43:21;9.20;52.70
7494;DHT22;3788;49.902;8.590;2023-04-03T15:45:48;9.20;53.30
7494;DHT22;3788;49.902;8.590;2023-04-03T15:48:17;9.10;53.40
7494;DHT22;3788;49.902;8.590;2023-04-03T15:50:44;9.10;53.60
7494;DHT22;3788;49.902;8.590;2023-04-03T15:53:12;9.10;53.80
7494;DHT22;3788;49.902;8.590;2023-04-03T15:55:39;9.10;52.60
7494;DHT22;3788;49.902;8.590;2023-04-03T15:58:07;9.10;52.80
7494;DHT22;3788;49.902;8.590;2023-04-03T16:00:35;9.10;52.70
7494;DHT22;3788;49.902;8.590;2023-04-03T16:03:05;9.10;52.70
7494;DHT22;3788;49.902;8.590;2023-04-03T16:05:33;9.10;53.10
7494;DHT22;3788;49.902;8.590;2023-04-03T16:08:01;9.10;53.40
7494;DHT22;3788;49.902;8.590;2023-04-03T16:10:30;9.10;53.30
7494;DHT22;3788;49.902;8.590;2023-04-03T16:12:57;9.00;53.50
7494;DHT22;3788;49.902;8.590;2023-04-03T16:15:24;9.00;54.10
7494;DHT22;3788;49.902;8.590;2023-04-03T16:17:52;9.00;54.40
7494;DHT22;3788;49.902;8.590;2023-04-03T16:20:19;8.90;53.90
7494;DHT22;3788;49.902;8.590;2023-04-03T16:22:48;8.90;54.30
7494;DHT22;3788;49.902;8.590;2023-04-03T16:25:15;8.90;54.00
7494;DHT22;3788;49.902;8.590;2023-04-03T16:27:44;8.80;53.90
7494;DHT22;3788;49.902;8.590;2023-04-03T16:30:11;8.80;53.60
7494;DHT22;3788;49.902;8.590;2023-04-03T16:32:39;8.80;53.70
7494;DHT22;3788;49.902;8.590;2023-04-03T16:35:06;8.70;53.80
7494;DHT22;3788;49.902;8.590;2023-04-03T16:37:35;8.70;53.70
7494;DHT22;3788;49.902;8.590;2023-04-03T16:40:03;8.70;54.20